createdAt,value
2023-02-26T00:03:39.887Z,93881.00
2023-02-26T00:07:39.869Z,93879.00
2023-02-26T00:11:39.964Z,93881.00
2023-02-26T00:15:39.975Z,93881.00
2023-02-26T00:19:40.039Z,93881.00
2023-02-26T00:23:40.043Z,93875.00
2023-02-26T00:27:40.053Z,93879.00
2023-02-26T00:31:40.236Z,93875.00
2023-02-26T00:35:40.132Z,93877.00
2023-02-26T00:39:40.177Z,93877.00
2023-02-26T00:43:40.185Z,93881.00
2023-02-26T00:47:40.242Z,93885.00
2023-02-26T00:51:40.276Z,93885.00
2023-02-26T00:55:40.289Z,93887.00
2023-02-26T00:59:40.357Z,93889.00
2023-02-26T01:03:40.495Z,93887.00
2023-02-26T01:07:40.474Z,93881.00
2023-02-26T01:11:40.569Z,93883.00
2023-02-26T01:15:40.631Z,93881.00
2023-02-26T01:19:40.709Z,93875.00
2023-02-26T01:23:40.754Z,93873.00
2023-02-26T01:27:40.892Z,93875.00
2023-02-26T01:31:41.193Z,93875.00
2023-02-26T01:35:41.074Z,93879.00
2023-02-26T01:39:41.247Z,93881.00
2023-02-26T01:43:41.225Z,93885.00
2023-02-26T01:47:41.288Z,93883.00
2023-02-26T01:51:41.407Z,93885.00
2023-02-26T01:55:41.484Z,93883.00
2023-02-26T01:59:41.576Z,93879.00
2023-02-26T02:03:41.671Z,93883.00
2023-02-26T02:07:41.732Z,93881.00
2023-02-26T02:11:41.822Z,93883.00
2023-02-26T02:15:41.921Z,93885.00
2023-02-26T02:19:41.991Z,93883.00
2023-02-26T02:23:42.061Z,93885.00
2023-02-26T02:27:42.177Z,93887.00
2023-02-26T02:31:42.459Z,93889.00
2023-02-26T02:35:42.316Z,93885.00
2023-02-26T02:39:42.396Z,93887.00
2023-02-26T02:43:42.534Z,93887.00
2023-02-26T02:47:42.590Z,93885.00
2023-02-26T02:51:42.725Z,93892.00
2023-02-26T02:55:42.767Z,93896.00
2023-02-26T02:59:42.935Z,93892.00
2023-02-26T03:03:43.075Z,93892.00
2023-02-26T03:07:43.193Z,93890.00
2023-02-26T03:11:43.318Z,93896.00
2023-02-26T03:15:43.481Z,93906.00
2023-02-26T03:19:43.577Z,93906.00
2023-02-26T03:23:43.718Z,93904.00
2023-02-26T03:27:43.840Z,93906.00
2023-02-26T03:31:44.081Z,93912.00
2023-02-26T03:35:44.134Z,93916.00
2023-02-26T03:39:44.339Z,93916.00
2023-02-26T03:43:44.454Z,93920.00
2023-02-26T03:47:44.649Z,93920.00
2023-02-26T03:51:44.774Z,93928.00
2023-02-26T03:55:44.953Z,93934.00
2023-02-26T03:59:45.073Z,93932.00
2023-02-26T04:03:45.238Z,93937.00
2023-02-26T04:07:45.401Z,93941.00
2023-02-26T04:11:45.601Z,93947.00
2023-02-26T04:15:45.970Z,93951.00
2023-02-26T04:19:45.922Z,93953.00
2023-02-26T04:23:46.088Z,93959.00
2023-02-26T04:27:46.229Z,93963.00
2023-02-26T04:31:46.524Z,93963.00
2023-02-26T04:35:46.497Z,93965.00
2023-02-26T04:39:46.633Z,93963.00
2023-02-26T04:43:46.795Z,93959.00
2023-02-26T04:47:46.942Z,93959.00
2023-02-26T04:51:47.135Z,93965.00
2023-02-26T04:55:47.257Z,93965.00
2023-02-26T04:59:47.418Z,93969.00
2023-02-26T05:03:47.591Z,93981.00
2023-02-26T05:07:47.510Z,93986.00
2023-02-26T05:11:47.402Z,93988.00
2023-02-26T05:15:47.397Z,93992.00
2023-02-26T05:19:47.258Z,93984.00
2023-02-26T05:23:47.154Z,93988.00
2023-02-26T05:27:47.086Z,93986.00
2023-02-26T05:31:47.024Z,93994.00
2023-02-26T05:35:46.892Z,94000.00
2023-02-26T05:39:46.798Z,94000.00
2023-02-26T05:43:46.723Z,94002.00
2023-02-26T05:47:46.758Z,94002.00
2023-02-26T05:51:46.662Z,94008.00
2023-02-26T05:55:46.595Z,94014.00
2023-02-26T05:59:46.571Z,94024.00
2023-02-26T06:03:46.427Z,94028.00
2023-02-26T06:07:47.601Z,94032.00
2023-02-26T06:11:46.274Z,94039.00
2023-02-26T06:15:46.187Z,94043.00
2023-02-26T06:19:46.139Z,94051.00
2023-02-26T06:23:46.047Z,94053.00
2023-02-26T06:27:46.063Z,94061.00
2023-02-26T06:31:46.087Z,94067.00
2023-02-26T06:35:46.018Z,94073.00
2023-02-26T06:39:45.776Z,94073.00
2023-02-26T06:43:45.697Z,94077.00
2023-02-26T06:47:45.626Z,94081.00
2023-02-26T06:51:45.561Z,94081.00
2023-02-26T06:55:45.470Z,94088.00
2023-02-26T06:59:45.437Z,94098.00
2023-02-26T07:03:45.312Z,94116.00
2023-02-26T07:07:45.359Z,94118.00
2023-02-26T07:11:45.250Z,94130.00
2023-02-26T07:15:46.332Z,94133.00
2023-02-26T07:19:45.058Z,94131.00
2023-02-26T07:23:44.977Z,94141.00
2023-02-26T07:27:44.900Z,94147.00
2023-02-26T07:31:44.894Z,94147.00
2023-02-26T07:35:44.922Z,94159.00
2023-02-26T07:39:44.830Z,94167.00
2023-02-26T07:43:44.718Z,94169.00
2023-02-26T07:47:44.633Z,94173.00
2023-02-26T07:51:44.589Z,94181.00
2023-02-26T07:55:44.456Z,94185.00
2023-02-26T07:59:44.437Z,94186.00
2023-02-26T08:03:44.299Z,94185.00
2023-02-26T08:07:44.219Z,94188.00
2023-02-26T08:11:44.122Z,94188.00
2023-02-26T08:15:44.130Z,94194.00
2023-02-26T08:19:44.020Z,94198.00
2023-02-26T08:23:44.147Z,94210.00
2023-02-26T08:27:44.318Z,94212.00
2023-02-26T08:31:44.559Z,94208.00
2023-02-26T08:35:44.568Z,94214.00
2023-02-26T08:39:44.737Z,94228.00
2023-02-26T08:43:44.813Z,94230.00
2023-02-26T08:47:56.302Z,94232.00
2023-02-26T08:51:45.836Z,94243.00
2023-02-26T08:55:44.714Z,94249.00
2023-02-26T08:59:44.663Z,94253.00
2023-02-26T09:03:44.652Z,94255.00
2023-02-26T09:07:44.764Z,94255.00
2023-02-26T09:11:44.793Z,94247.00
2023-02-26T09:15:44.846Z,94243.00
2023-02-26T09:19:44.862Z,94247.00
2023-02-26T09:23:44.902Z,94237.00
2023-02-26T09:27:44.941Z,94243.00
2023-02-26T09:31:45.025Z,94255.00
2023-02-26T09:35:44.977Z,94253.00
2023-02-26T09:39:44.969Z,94253.00
2023-02-26T09:43:44.950Z,94249.00
2023-02-26T09:47:44.893Z,94247.00
2023-02-26T09:51:44.880Z,94239.00
2023-02-26T09:55:44.845Z,94249.00
2023-02-26T09:59:44.764Z,94243.00
2023-02-26T10:03:44.712Z,94241.00
2023-02-26T10:07:44.704Z,94233.00
2023-02-26T10:11:44.693Z,94224.00
2023-02-26T10:15:44.660Z,94214.00
2023-02-26T10:19:44.604Z,94214.00
2023-02-26T10:23:44.523Z,94210.00
2023-02-26T10:27:44.541Z,94212.00
2023-02-26T10:31:44.577Z,94208.00
2023-02-26T10:35:44.487Z,94216.00
2023-02-26T10:39:44.471Z,94233.00
2023-02-26T10:43:44.421Z,94247.00
2023-02-26T10:47:44.710Z,94253.00
2023-02-26T10:51:44.380Z,94271.00
2023-02-26T10:55:44.392Z,94279.00
2023-02-26T10:59:44.397Z,94271.00
2023-02-26T11:03:44.359Z,94286.00
2023-02-26T11:07:44.402Z,94296.00
2023-02-26T11:11:44.418Z,94302.00
2023-02-26T11:15:44.494Z,94302.00
2023-02-26T11:19:44.463Z,94296.00
2023-02-26T11:23:44.486Z,94298.00
2023-02-26T11:27:44.497Z,94292.00
2023-02-26T11:31:44.706Z,94282.00
2023-02-26T11:35:44.542Z,94282.00
2023-02-26T11:39:44.521Z,94284.00
2023-02-26T11:43:45.167Z,94279.00
2023-02-26T11:47:44.484Z,94282.00
2023-02-26T11:51:44.432Z,94296.00
2023-02-26T11:55:44.398Z,94308.00
2023-02-26T11:59:44.428Z,94308.00
2023-02-26T12:03:45.119Z,94308.00
2023-02-26T12:07:44.364Z,94292.00
2023-02-26T12:11:44.381Z,94290.00
2023-02-26T12:15:44.363Z,94288.00
2023-02-26T12:19:44.290Z,94282.00
2023-02-26T12:23:44.292Z,94284.00
2023-02-26T12:27:44.237Z,94288.00
2023-02-26T12:31:44.300Z,94302.00
2023-02-26T12:35:44.230Z,94296.00
2023-02-26T12:39:44.194Z,94302.00
2023-02-26T12:43:44.184Z,94292.00
2023-02-26T12:47:44.161Z,94302.00
2023-02-26T12:51:44.152Z,94294.00
2023-02-26T12:55:44.126Z,94282.00
2023-02-26T12:59:44.125Z,94284.00
2023-02-26T13:03:44.119Z,94286.00
2023-02-26T13:07:44.037Z,94300.00
2023-02-26T13:11:43.958Z,94302.00
2023-02-26T13:15:43.937Z,94304.00
2023-02-26T13:19:43.874Z,94318.00
2023-02-26T13:23:43.800Z,94320.00
2023-02-26T13:27:43.732Z,94318.00
2023-02-26T13:31:43.837Z,94312.00
2023-02-26T13:35:43.661Z,94312.00
2023-02-26T13:39:43.636Z,94314.00
2023-02-26T13:43:43.588Z,94314.00
2023-02-26T13:47:43.602Z,94316.00
2023-02-26T13:51:43.615Z,94320.00
2023-02-26T13:55:43.583Z,94326.00
2023-02-26T13:59:43.558Z,94326.00
2023-02-26T14:03:43.534Z,94328.00
2023-02-26T14:07:43.487Z,94341.00
2023-02-26T14:11:43.679Z,94343.00
2023-02-26T14:15:43.405Z,94349.00
2023-02-26T14:19:43.416Z,94347.00
2023-02-26T14:23:43.368Z,94353.00
2023-02-26T14:27:43.417Z,94353.00
2023-02-26T14:31:43.715Z,94347.00
2023-02-26T14:35:43.451Z,94355.00
2023-02-26T14:39:43.550Z,94353.00
2023-02-26T14:43:43.484Z,94357.00
2023-02-26T14:47:43.465Z,94363.00
2023-02-26T14:51:43.516Z,94377.00
2023-02-26T14:55:43.536Z,94386.00
2023-02-26T14:59:43.604Z,94390.00
2023-02-26T15:03:43.718Z,94398.00
2023-02-26T15:07:43.764Z,94396.00
2023-02-26T15:11:43.823Z,94404.00
2023-02-26T15:15:43.924Z,94408.00
2023-02-26T15:19:43.969Z,94412.00
2023-02-26T15:23:44.070Z,94420.00
2023-02-26T15:27:44.169Z,94429.00
2023-02-26T15:31:44.533Z,94435.00
2023-02-26T15:35:44.452Z,94439.00
2023-02-26T15:39:44.556Z,94457.00
2023-02-26T15:43:44.709Z,94457.00
2023-02-26T15:47:44.817Z,94455.00
2023-02-26T15:51:44.997Z,94461.00
2023-02-26T15:55:45.152Z,94457.00
2023-02-26T15:59:45.305Z,94467.00
2023-02-26T16:03:45.460Z,94475.00
2023-02-26T16:07:45.652Z,94484.00
2023-02-26T16:11:45.754Z,94488.00
2023-02-26T16:15:45.931Z,94496.00
2023-02-26T16:19:46.044Z,94502.00
2023-02-26T16:23:46.209Z,94504.00
2023-02-26T16:27:46.362Z,94504.00
2023-02-26T16:31:46.444Z,94514.00
2023-02-26T16:35:46.200Z,94524.00
2023-02-26T16:39:46.106Z,94531.00
2023-02-26T16:43:46.033Z,94535.00
2023-02-26T16:47:45.954Z,94543.00
2023-02-26T16:51:45.884Z,94567.00
2023-02-26T16:55:45.748Z,94582.00
2023-02-26T16:59:45.716Z,94580.00
2023-02-26T17:03:45.601Z,94578.00
2023-02-26T17:07:45.663Z,94600.00
2023-02-26T17:11:45.755Z,94612.00
2023-02-26T17:15:45.840Z,94612.00
2023-02-26T17:19:45.986Z,94616.00
2023-02-26T17:23:46.164Z,94637.00
2023-02-26T17:27:46.288Z,94633.00
2023-02-26T17:31:46.525Z,94622.00
2023-02-26T17:35:46.457Z,94620.00
2023-02-26T17:39:46.411Z,94620.00
2023-02-26T17:43:46.361Z,94629.00
2023-02-26T17:47:46.307Z,94631.00
2023-02-26T17:51:46.206Z,94637.00
2023-02-26T17:55:46.189Z,94647.00
2023-02-26T17:59:46.150Z,94637.00
2023-02-26T18:03:46.071Z,94645.00
2023-02-26T18:07:45.990Z,94659.00
2023-02-26T18:11:45.949Z,94671.00
2023-02-26T18:15:45.849Z,94663.00
2023-02-26T18:19:45.827Z,94663.00
2023-02-26T18:23:45.795Z,94663.00
2023-02-26T18:27:45.736Z,94663.00
2023-02-26T18:31:45.861Z,94657.00
2023-02-26T18:35:45.667Z,94661.00
2023-02-26T18:39:45.612Z,94657.00
2023-02-26T18:43:45.611Z,94655.00
2023-02-26T18:47:45.566Z,94659.00
2023-02-26T18:51:45.540Z,94667.00
2023-02-26T18:55:45.561Z,94665.00
2023-02-26T18:59:45.545Z,94669.00
2023-02-26T19:03:45.524Z,94669.00
2023-02-26T19:07:45.504Z,94667.00
2023-02-26T19:11:45.507Z,94665.00
2023-02-26T19:15:45.499Z,94667.00
2023-02-26T19:19:45.505Z,94678.00
2023-02-26T19:23:45.462Z,94676.00
2023-02-26T19:27:45.431Z,94675.00
2023-02-26T19:31:45.655Z,94671.00
2023-02-26T19:35:45.446Z,94675.00
2023-02-26T19:39:45.426Z,94675.00
2023-02-26T19:43:45.434Z,94680.00
2023-02-26T19:47:45.435Z,94688.00
2023-02-26T19:51:45.466Z,94692.00
2023-02-26T19:55:45.478Z,94696.00
2023-02-26T19:59:45.469Z,94698.00
2023-02-26T20:03:47.399Z,94702.00
2023-02-26T20:07:45.434Z,94702.00
2023-02-26T20:11:45.604Z,94706.00
2023-02-26T20:15:45.291Z,94710.00
2023-02-26T20:19:45.185Z,94712.00
2023-02-26T20:23:45.080Z,94708.00
2023-02-26T20:27:44.990Z,94704.00
2023-02-26T20:31:47.180Z,94708.00
2023-02-26T20:35:44.861Z,94714.00
2023-02-26T20:39:44.873Z,94716.00
2023-02-26T20:43:44.915Z,94720.00
2023-02-26T20:47:44.941Z,94725.00
2023-02-26T20:51:44.954Z,94729.00
2023-02-26T20:55:44.978Z,94735.00
2023-02-26T20:59:45.018Z,94737.00
2023-02-26T21:03:45.068Z,94745.00
2023-02-26T21:07:45.085Z,94749.00
2023-02-26T21:11:45.085Z,94747.00
2023-02-26T21:15:45.097Z,94753.00
2023-02-26T21:19:45.154Z,94759.00
2023-02-26T21:23:45.260Z,94759.00
2023-02-26T21:27:45.249Z,94763.00
2023-02-26T21:31:45.390Z,94757.00
2023-02-26T21:35:45.315Z,94763.00
2023-02-26T21:39:45.362Z,94761.00
2023-02-26T21:43:45.424Z,94765.00
2023-02-26T21:47:45.442Z,94761.00
2023-02-26T21:51:45.530Z,94767.00
2023-02-26T21:55:45.556Z,94769.00
2023-02-26T21:59:45.622Z,94771.00
2023-02-26T22:03:45.684Z,94771.00
2023-02-26T22:07:45.734Z,94767.00
2023-02-26T22:11:45.835Z,94771.00
2023-02-26T22:15:45.909Z,94771.00
2023-02-26T22:19:45.984Z,94775.00
2023-02-26T22:23:46.053Z,94775.00
2023-02-26T22:27:46.125Z,94778.00
2023-02-26T22:31:46.291Z,94778.00
2023-02-26T22:35:46.298Z,94771.00
2023-02-26T22:39:46.431Z,94773.00
2023-02-26T22:43:46.473Z,94778.00
2023-02-26T22:47:46.541Z,94777.00
2023-02-26T22:51:46.619Z,94780.00
2023-02-26T22:55:46.718Z,94786.00
2023-02-26T22:59:46.810Z,94786.00
2023-02-26T23:03:46.928Z,94788.00
2023-02-26T23:07:47.100Z,94794.00
2023-02-26T23:11:47.185Z,94796.00
2023-02-26T23:15:47.424Z,94794.00
2023-02-26T23:19:47.414Z,94804.00
2023-02-26T23:23:47.524Z,94808.00
2023-02-26T23:27:47.623Z,94810.00
2023-02-26T23:31:47.947Z,94820.00
2023-02-26T23:35:47.903Z,94816.00
2023-02-26T23:39:48.008Z,94816.00
2023-02-26T23:43:48.163Z,94812.00
2023-02-26T23:47:48.277Z,94812.00
2023-02-26T23:51:48.470Z,94816.00
2023-02-26T23:55:48.622Z,94818.00
2023-02-26T23:59:48.797Z,94822.00
